sensor_id;sensor_type;location;lat;lon;timestamp;pressure;altitude;pressure_sealevel;temperature;humidity
71306;BME280;59097;46.858;18.632;2022-08-01T00:00:09;100263.03;;;15.16;82.67
71306;BME280;59097;46.858;18.632;2022-08-01T00:02:40;100254.94;;;15.04;83.91
71306;BME280;59097;46.858;18.632;2022-08-01T00:05:09;100252.84;;;15.06;83.12
71306;BME280;59097;46.858;18.632;2022-08-01T00:07:39;100258.44;;;15.04;83.20
71306;BME280;59097;46.858;18.632;2022-08-01T00:10:09;100253.16;;;14.98;83.39
71306;BME280;59097;46.858;18.632;2022-08-01T00:12:38;100253.16;;;14.98;82.86
71306;BME280;59097;46.858;18.632;2022-08-01T00:15:08;100246.34;;;15.02;82.66
71306;BME280;59097;46.858;18.632;2022-08-01T00:17:36;100250.84;;;15.01;82.76
71306;BME280;59097;46.858;18.632;2022-08-01T00:20:10;100249.22;;;15.00;83.07
71306;BME280;59097;46.858;18.632;2022-08-01T00:22:39;100238.38;;;14.95;82.85
71306;BME280;59097;46.858;18.632;2022-08-01T00:25:07;100249.44;;;14.99;82.82
71306;BME280;59097;46.858;18.632;2022-08-01T00:27:35;100251.88;;;15.00;82.74
71306;BME280;59097;46.858;18.632;2022-08-01T00:30:05;100251.88;;;15.00;82.62
71306;BME280;59097;46.858;18.632;2022-08-01T00:32:44;100246.94;;;15.04;82.52
71306;BME280;59097;46.858;18.632;2022-08-01T00:35:12;100243.00;;;15.06;82.55
71306;BME280;59097;46.858;18.632;2022-08-01T00:37:41;100241.16;;;15.07;83.08
71306;BME280;59097;46.858;18.632;2022-08-01T00:40:10;100239.75;;;15.04;83.44
71306;BME280;59097;46.858;18.632;2022-08-01T00:42:38;100239.12;;;15.02;83.35
71306;BME280;59097;46.858;18.632;2022-08-01T00:45:11;100239.12;;;15.02;83.34
71306;BME280;59097;46.858;18.632;2022-08-01T00:47:39;100239.94;;;15.03;83.33
71306;BME280;59097;46.858;18.632;2022-08-01T00:50:08;100243.66;;;15.02;83.88
71306;BME280;59097;46.858;18.632;2022-08-01T00:52:39;100245.13;;;14.98;84.20
71306;BME280;59097;46.858;18.632;2022-08-01T00:55:09;100245.56;;;14.95;84.05
71306;BME280;59097;46.858;18.632;2022-08-01T00:57:42;100238.50;;;14.82;84.38
71306;BME280;59097;46.858;18.632;2022-08-01T01:00:30;100240.06;;;14.90;84.14
71306;BME280;59097;46.858;18.632;2022-08-01T01:03:01;100231.91;;;14.85;84.15
71306;BME280;59097;46.858;18.632;2022-08-01T01:05:35;100243.56;;;14.90;84.61
71306;BME280;59097;46.858;18.632;2022-08-01T01:08:19;100248.91;;;14.90;84.94
71306;BME280;59097;46.858;18.632;2022-08-01T01:11:02;100246.91;;;14.86;84.89
71306;BME280;59097;46.858;18.632;2022-08-01T01:13:43;100239.78;;;14.80;85.09
71306;BME280;59097;46.858;18.632;2022-08-01T01:16:20;100254.53;;;14.82;85.25
71306;BME280;59097;46.858;18.632;2022-08-01T01:18:55;100254.31;;;14.84;85.24
71306;BME280;59097;46.858;18.632;2022-08-01T01:21:35;100253.50;;;14.83;85.49
71306;BME280;59097;46.858;18.632;2022-08-01T01:24:40;100251.06;;;14.82;86.29
71306;BME280;59097;46.858;18.632;2022-08-01T01:27:38;100252.12;;;14.74;86.24
71306;BME280;59097;46.858;18.632;2022-08-01T01:30:07;100241.31;;;14.69;86.37
71306;BME280;59097;46.858;18.632;2022-08-01T01:32:39;100240.28;;;14.70;86.25
71306;BME280;59097;46.858;18.632;2022-08-01T01:35:20;100232.72;;;14.67;86.45
71306;BME280;59097;46.858;18.632;2022-08-01T01:38:09;100232.56;;;14.62;86.64
71306;BME280;59097;46.858;18.632;2022-08-01T01:40:39;100232.78;;;14.61;86.54
71306;BME280;59097;46.858;18.632;2022-08-01T01:43:10;100222.94;;;14.61;86.48
71306;BME280;59097;46.858;18.632;2022-08-01T01:45:40;100216.81;;;14.54;86.50
71306;BME280;59097;46.858;18.632;2022-08-01T01:48:15;100217.44;;;14.56;86.20
71306;BME280;59097;46.858;18.632;2022-08-01T01:50:47;100218.03;;;14.58;86.07
71306;BME280;59097;46.858;18.632;2022-08-01T01:53:21;100218.62;;;14.60;85.90
71306;BME280;59097;46.858;18.632;2022-08-01T01:55:52;100219.63;;;14.59;85.81
71306;BME280;59097;46.858;18.632;2022-08-01T01:58:23;100218.38;;;14.62;85.54
71306;BME280;59097;46.858;18.632;2022-08-01T02:00:52;100215.94;;;14.60;85.55
71306;BME280;59097;46.858;18.632;2022-08-01T02:03:23;100208.75;;;14.61;85.35
71306;BME280;59097;46.858;18.632;2022-08-01T02:05:58;100212.69;;;14.58;85.16
71306;BME280;59097;46.858;18.632;2022-08-01T02:08:29;100207.94;;;14.60;85.10
71306;BME280;59097;46.858;18.632;2022-08-01T02:11:01;100210.84;;;14.59;85.11
71306;BME280;59097;46.858;18.632;2022-08-01T02:14:02;100192.78;;;14.54;85.02
71306;BME280;59097;46.858;18.632;2022-08-01T02:16:34;100203.41;;;14.61;85.45
71306;BME280;59097;46.858;18.632;2022-08-01T02:19:03;100206.09;;;14.61;85.33
71306;BME280;59097;46.858;18.632;2022-08-01T02:21:39;100214.16;;;14.54;85.35
71306;BME280;59097;46.858;18.632;2022-08-01T02:27:17;100211.62;;;14.59;84.57
71306;BME280;59097;46.858;18.632;2022-08-01T02:30:08;100214.91;;;14.61;84.31
71306;BME280;59097;46.858;18.632;2022-08-01T02:32:49;100208.22;;;14.52;85.21
71306;BME280;59097;46.858;18.632;2022-08-01T02:35:27;100209.87;;;14.53;84.99
71306;BME280;59097;46.858;18.632;2022-08-01T02:37:57;100212.72;;;14.52;85.03
71306;BME280;59097;46.858;18.632;2022-08-01T02:40:28;100212.72;;;14.52;85.02
71306;BME280;59097;46.858;18.632;2022-08-01T02:42:59;100209.47;;;14.49;85.63
71306;BME280;59097;46.858;18.632;2022-08-01T02:45:28;100216.50;;;14.44;86.13
71306;BME280;59097;46.858;18.632;2022-08-01T02:48:11;100209.63;;;14.30;86.93
71306;BME280;59097;46.858;18.632;2022-08-01T02:50:42;100215.97;;;14.29;86.93
71306;BME280;59097;46.858;18.632;2022-08-01T02:53:12;100212.72;;;14.27;87.02
71306;BME280;59097;46.858;18.632;2022-08-01T02:55:42;100214.63;;;14.20;87.37
71306;BME280;59097;46.858;18.632;2022-08-01T02:58:14;100225.66;;;14.23;87.18
71306;BME280;59097;46.858;18.632;2022-08-01T03:00:45;100225.47;;;14.25;86.87
71306;BME280;59097;46.858;18.632;2022-08-01T03:03:15;100228.13;;;14.25;86.96
71306;BME280;59097;46.858;18.632;2022-08-01T03:05:44;100230.37;;;14.28;86.88
71306;BME280;59097;46.858;18.632;2022-08-01T03:08:15;100225.47;;;14.25;87.15
71306;BME280;59097;46.858;18.632;2022-08-01T03:10:45;100226.47;;;14.24;87.40
71306;BME280;59097;46.858;18.632;2022-08-01T03:13:15;100235.91;;;14.26;87.66
71306;BME280;59097;46.858;18.632;2022-08-01T03:15:45;100231.62;;;14.25;88.45
71306;BME280;59097;46.858;18.632;2022-08-01T03:18:15;100229.75;;;14.26;88.80
71306;BME280;59097;46.858;18.632;2022-08-01T03:20:45;100228.97;;;14.25;89.76
71306;BME280;59097;46.858;18.632;2022-08-01T03:23:15;100219.97;;;14.20;89.14
71306;BME280;59097;46.858;18.632;2022-08-01T03:25:44;100218.31;;;14.19;89.42
71306;BME280;59097;46.858;18.632;2022-08-01T03:28:13;100222.84;;;14.18;90.66
71306;BME280;59097;46.858;18.632;2022-08-01T03:30:44;100214.66;;;14.13;90.29
71306;BME280;59097;46.858;18.632;2022-08-01T03:33:13;100214.31;;;14.10;90.44
71306;BME280;59097;46.858;18.632;2022-08-01T03:35:50;100211.91;;;13.95;91.41
71306;BME280;59097;46.858;18.632;2022-08-01T03:38:23;100213.78;;;13.95;91.17
71306;BME280;59097;46.858;18.632;2022-08-01T03:40:58;100222.00;;;13.93;90.83
71306;BME280;59097;46.858;18.632;2022-08-01T03:43:32;100223.28;;;13.84;91.16
71306;BME280;59097;46.858;18.632;2022-08-01T03:46:07;100231.66;;;13.87;91.40
71306;BME280;59097;46.858;18.632;2022-08-01T03:48:41;100237.63;;;13.90;91.71
71306;BME280;59097;46.858;18.632;2022-08-01T03:51:11;100235.06;;;14.01;90.61
71306;BME280;59097;46.858;18.632;2022-08-01T03:53:42;100229.81;;;13.88;91.03
71306;BME280;59097;46.858;18.632;2022-08-01T03:56:13;100230.97;;;13.99;91.18
71306;BME280;59097;46.858;18.632;2022-08-01T03:58:45;100227.16;;;13.88;91.02
71306;BME280;59097;46.858;18.632;2022-08-01T04:01:17;100233.06;;;13.90;90.07
71306;BME280;59097;46.858;18.632;2022-08-01T04:03:46;100236.97;;;13.94;89.67
71306;BME280;59097;46.858;18.632;2022-08-01T04:06:14;100242.91;;;13.96;89.59
71306;BME280;59097;46.858;18.632;2022-08-01T04:08:43;100237.34;;;13.98;89.44
71306;BME280;59097;46.858;18.632;2022-08-01T04:11:24;100242.88;;;14.03;89.63
71306;BME280;59097;46.858;18.632;2022-08-01T04:13:53;100243.28;;;14.00;90.49
71306;BME280;59097;46.858;18.632;2022-08-01T04:16:22;100240.41;;;14.01;90.14
71306;BME280;59097;46.858;18.632;2022-08-01T04:18:50;100242.31;;;13.87;90.98
71306;BME280;59097;46.858;18.632;2022-08-01T04:21:21;100232.56;;;14.06;89.72
71306;BME280;59097;46.858;18.632;2022-08-01T04:23:52;100238.47;;;14.15;89.50
71306;BME280;59097;46.858;18.632;2022-08-01T04:26:22;100238.94;;;14.36;88.00
71306;BME280;59097;46.858;18.632;2022-08-01T04:28:53;100244.97;;;14.50;87.72
71306;BME280;59097;46.858;18.632;2022-08-01T04:31:24;100253.00;;;14.93;86.25
71306;BME280;59097;46.858;18.632;2022-08-01T04:33:54;100248.94;;;15.63;82.46
71306;BME280;59097;46.858;18.632;2022-08-01T04:36:24;100247.19;;;15.98;81.19
71306;BME280;59097;46.858;18.632;2022-08-01T04:38:56;100254.94;;;15.88;81.59
71306;BME280;59097;46.858;18.632;2022-08-01T04:41:25;100250.78;;;15.92;81.85
71306;BME280;59097;46.858;18.632;2022-08-01T04:43:54;100247.75;;;17.34;76.91
71306;BME280;59097;46.858;18.632;2022-08-01T04:46:22;100234.47;;;20.09;66.35
71306;BME280;59097;46.858;18.632;2022-08-01T04:48:51;100239.72;;;23.92;54.12
71306;BME280;59097;46.858;18.632;2022-08-01T04:51:22;100248.06;;;24.78;49.92
71306;BME280;59097;46.858;18.632;2022-08-01T04:53:51;100236.94;;;27.93;43.52
71306;BME280;59097;46.858;18.632;2022-08-01T04:56:20;100241.78;;;27.06;44.47
71306;BME280;59097;46.858;18.632;2022-08-01T04:58:48;100232.28;;;23.09;52.85
71306;BME280;59097;46.858;18.632;2022-08-01T05:01:49;100221.22;;;25.66;47.79
71306;BME280;59097;46.858;18.632;2022-08-01T05:04:18;100221.50;;;25.46;48.22
71306;BME280;59097;46.858;18.632;2022-08-01T05:06:46;100229.63;;;23.63;53.19
71306;BME280;59097;46.858;18.632;2022-08-01T05:09:14;100230.78;;;26.98;44.09
71306;BME280;59097;46.858;18.632;2022-08-01T05:11:43;100227.03;;;27.97;42.20
71306;BME280;59097;46.858;18.632;2022-08-01T05:14:11;100223.09;;;28.48;40.01
71306;BME280;59097;46.858;18.632;2022-08-01T05:16:39;100224.84;;;29.53;38.86
71306;BME280;59097;46.858;18.632;2022-08-01T05:19:07;100221.84;;;27.87;42.45
71306;BME280;59097;46.858;18.632;2022-08-01T05:21:36;100220.56;;;30.84;36.36
71306;BME280;59097;46.858;18.632;2022-08-01T05:24:05;100232.63;;;31.00;35.93
71306;BME280;59097;46.858;18.632;2022-08-01T05:26:33;100220.03;;;31.37;35.31
71306;BME280;59097;46.858;18.632;2022-08-01T05:29:03;100222.34;;;32.51;33.30
71306;BME280;59097;46.858;18.632;2022-08-01T05:31:31;100232.31;;;30.85;36.45
71306;BME280;59097;46.858;18.632;2022-08-01T05:34:02;100227.59;;;29.14;39.98
71306;BME280;59097;46.858;18.632;2022-08-01T05:36:30;100223.72;;;26.83;44.66
71306;BME280;59097;46.858;18.632;2022-08-01T05:38:58;100223.28;;;24.84;50.75
71306;BME280;59097;46.858;18.632;2022-08-01T05:41:26;100215.53;;;23.61;54.50
71306;BME280;59097;46.858;18.632;2022-08-01T05:43:54;100234.47;;;22.87;58.17
71306;BME280;59097;46.858;18.632;2022-08-01T05:46:22;100221.53;;;22.64;58.95
71306;BME280;59097;46.858;18.632;2022-08-01T05:48:54;100231.44;;;21.73;62.82
71306;BME280;59097;46.858;18.632;2022-08-01T05:51:23;100224.22;;;22.04;61.47
71306;BME280;59097;46.858;18.632;2022-08-01T05:53:51;100218.81;;;21.93;62.21
71306;BME280;59097;46.858;18.632;2022-08-01T05:56:21;100213.37;;;21.78;63.00
71306;BME280;59097;46.858;18.632;2022-08-01T05:58:50;100223.34;;;21.83;64.69
71306;BME280;59097;46.858;18.632;2022-08-01T06:01:18;100227.22;;;22.02;62.78
71306;BME280;59097;46.858;18.632;2022-08-01T06:03:47;100248.00;;;22.12;62.74
71306;BME280;59097;46.858;18.632;2022-08-01T06:06:15;100254.75;;;22.04;63.78
71306;BME280;59097;46.858;18.632;2022-08-01T06:08:43;100254.25;;;22.37;61.94
71306;BME280;59097;46.858;18.632;2022-08-01T06:11:11;100258.03;;;22.72;61.14
71306;BME280;59097;46.858;18.632;2022-08-01T06:13:39;100261.00;;;22.85;60.72
71306;BME280;59097;46.858;18.632;2022-08-01T06:16:16;100261.03;;;22.70;61.23
71306;BME280;59097;46.858;18.632;2022-08-01T06:18:44;100242.62;;;22.37;61.21
71306;BME280;59097;46.858;18.632;2022-08-01T06:21:12;100253.06;;;23.19;58.95
71306;BME280;59097;46.858;18.632;2022-08-01T06:23:41;100257.13;;;23.22;59.19
71306;BME280;59097;46.858;18.632;2022-08-01T06:26:09;100257.75;;;23.72;57.89
71306;BME280;59097;46.858;18.632;2022-08-01T06:28:38;100251.38;;;23.43;57.92
71306;BME280;59097;46.858;18.632;2022-08-01T06:31:06;100233.34;;;23.77;56.37
71306;BME280;59097;46.858;18.632;2022-08-01T06:33:34;100227.75;;;24.03;55.59
71306;BME280;59097;46.858;18.632;2022-08-01T06:36:03;100237.22;;;24.44;55.16
71306;BME280;59097;46.858;18.632;2022-08-01T06:38:32;100233.37;;;24.50;54.36
71306;BME280;59097;46.858;18.632;2022-08-01T06:40:59;100234.63;;;24.29;55.38
71306;BME280;59097;46.858;18.632;2022-08-01T06:43:28;100235.44;;;23.91;54.27
71306;BME280;59097;46.858;18.632;2022-08-01T06:45:56;100228.03;;;23.57;55.92
71306;BME280;59097;46.858;18.632;2022-08-01T06:48:24;100232.22;;;23.84;55.43
71306;BME280;59097;46.858;18.632;2022-08-01T06:50:53;100234.94;;;23.84;55.56
71306;BME280;59097;46.858;18.632;2022-08-01T06:53:37;100234.69;;;23.75;56.18
71306;BME280;59097;46.858;18.632;2022-08-01T06:56:06;100215.97;;;23.84;56.00
71306;BME280;59097;46.858;18.632;2022-08-01T06:58:37;100226.16;;;24.02;55.46
71306;BME280;59097;46.858;18.632;2022-08-01T07:01:06;100229.88;;;24.11;55.76
71306;BME280;59097;46.858;18.632;2022-08-01T07:03:35;100227.00;;;23.92;56.53
71306;BME280;59097;46.858;18.632;2022-08-01T07:06:24;100225.72;;;24.23;55.78
71306;BME280;59097;46.858;18.632;2022-08-01T07:08:54;100228.41;;;24.57;54.13
71306;BME280;59097;46.858;18.632;2022-08-01T07:11:23;100224.22;;;24.70;53.52
71306;BME280;59097;46.858;18.632;2022-08-01T07:13:51;100213.37;;;24.98;52.53
71306;BME280;59097;46.858;18.632;2022-08-01T07:16:21;100222.09;;;25.19;52.28
71306;BME280;59097;46.858;18.632;2022-08-01T07:18:51;100218.25;;;25.44;50.47
71306;BME280;59097;46.858;18.632;2022-08-01T07:21:19;100217.31;;;25.30;49.53
71306;BME280;59097;46.858;18.632;2022-08-01T07:24:10;100219.31;;;25.67;49.92
71306;BME280;59097;46.858;18.632;2022-08-01T07:26:42;100215.78;;;25.66;48.69
71306;BME280;59097;46.858;18.632;2022-08-01T07:29:24;100215.94;;;25.75;49.50
71306;BME280;59097;46.858;18.632;2022-08-01T07:31:56;100207.34;;;26.05;49.07
71306;BME280;59097;46.858;18.632;2022-08-01T07:34:25;100216.56;;;26.41;48.36
71306;BME280;59097;46.858;18.632;2022-08-01T07:36:59;100212.88;;;26.32;46.83
71306;BME280;59097;46.858;18.632;2022-08-01T07:39:29;100209.13;;;26.60;47.28
71306;BME280;59097;46.858;18.632;2022-08-01T07:42:02;100213.34;;;26.85;46.38
71306;BME280;59097;46.858;18.632;2022-08-01T07:44:35;100213.22;;;27.04;45.70
71306;BME280;59097;46.858;18.632;2022-08-01T07:47:08;100206.66;;;27.32;45.41
71306;BME280;59097;46.858;18.632;2022-08-01T07:49:41;100206.50;;;27.28;45.54
71306;BME280;59097;46.858;18.632;2022-08-01T07:52:09;100209.53;;;27.40;44.87
71306;BME280;59097;46.858;18.632;2022-08-01T07:54:38;100206.87;;;27.35;44.34
71306;BME280;59097;46.858;18.632;2022-08-01T07:57:16;100211.81;;;27.83;44.25
71306;BME280;59097;46.858;18.632;2022-08-01T07:59:45;100216.41;;;28.10;42.19
71306;BME280;59097;46.858;18.632;2022-08-01T08:02:15;100214.44;;;28.54;41.12
71306;BME280;59097;46.858;18.632;2022-08-01T08:04:43;100215.72;;;29.10;40.42
71306;BME280;59097;46.858;18.632;2022-08-01T08:07:16;100217.00;;;29.12;41.20
71306;BME280;59097;46.858;18.632;2022-08-01T08:09:46;100223.22;;;29.35;39.80
71306;BME280;59097;46.858;18.632;2022-08-01T08:12:18;100217.31;;;29.67;37.94
71306;BME280;59097;46.858;18.632;2022-08-01T08:14:57;100214.22;;;29.43;37.67
71306;BME280;59097;46.858;18.632;2022-08-01T08:17:35;100208.16;;;30.15;36.81
71306;BME280;59097;46.858;18.632;2022-08-01T08:20:06;100216.03;;;29.56;37.15
71306;BME280;59097;46.858;18.632;2022-08-01T08:22:38;100220.03;;;29.67;36.68
71306;BME280;59097;46.858;18.632;2022-08-01T08:25:07;100224.69;;;29.02;37.90
71306;BME280;59097;46.858;18.632;2022-08-01T08:27:36;100224.94;;;29.22;36.85
71306;BME280;59097;46.858;18.632;2022-08-01T08:30:06;100224.47;;;29.20;37.59
71306;BME280;59097;46.858;18.632;2022-08-01T08:32:36;100225.00;;;29.48;37.01
71306;BME280;59097;46.858;18.632;2022-08-01T08:35:05;100225.53;;;29.19;37.10
71306;BME280;59097;46.858;18.632;2022-08-01T08:37:35;100223.37;;;29.47;36.28
71306;BME280;59097;46.858;18.632;2022-08-01T08:40:07;100221.47;;;29.65;36.27
71306;BME280;59097;46.858;18.632;2022-08-01T08:42:35;100217.03;;;29.21;37.07
71306;BME280;59097;46.858;18.632;2022-08-01T08:45:05;100220.41;;;29.18;37.28
71306;BME280;59097;46.858;18.632;2022-08-01T08:47:41;100219.63;;;29.26;37.77
71306;BME280;59097;46.858;18.632;2022-08-01T08:50:11;100221.81;;;29.07;37.56
71306;BME280;59097;46.858;18.632;2022-08-01T08:52:40;100219.09;;;30.32;35.98
71306;BME280;59097;46.858;18.632;2022-08-01T08:55:09;100221.53;;;29.99;35.22
71306;BME280;59097;46.858;18.632;2022-08-01T08:57:39;100215.88;;;30.38;33.84
71306;BME280;59097;46.858;18.632;2022-08-01T09:00:09;100225.06;;;30.08;34.80
71306;BME280;59097;46.858;18.632;2022-08-01T09:02:43;100233.72;;;29.76;35.12
71306;BME280;59097;46.858;18.632;2022-08-01T09:05:12;100223.25;;;29.69;35.39
71306;BME280;59097;46.858;18.632;2022-08-01T09:07:45;100237.34;;;29.37;36.41
71306;BME280;59097;46.858;18.632;2022-08-01T09:10:14;100226.97;;;29.17;35.42
71306;BME280;59097;46.858;18.632;2022-08-01T09:13:11;100228.41;;;29.14;35.75
71306;BME280;59097;46.858;18.632;2022-08-01T09:15:51;100209.91;;;29.11;35.24
71306;BME280;59097;46.858;18.632;2022-08-01T09:21:08;100226.84;;;28.83;36.07
71306;BME280;59097;46.858;18.632;2022-08-01T09:23:43;100224.81;;;28.97;35.93
71306;BME280;59097;46.858;18.632;2022-08-01T09:26:33;100224.06;;;29.05;36.18
71306;BME280;59097;46.858;18.632;2022-08-01T09:29:04;100222.94;;;29.14;35.48
71306;BME280;59097;46.858;18.632;2022-08-01T09:31:43;100232.56;;;29.77;35.04
71306;BME280;59097;46.858;18.632;2022-08-01T09:34:15;100231.13;;;29.54;35.86
71306;BME280;59097;46.858;18.632;2022-08-01T09:36:57;100222.41;;;28.64;36.55
71306;BME280;59097;46.858;18.632;2022-08-01T09:39:30;100227.59;;;28.52;37.24
71306;BME280;59097;46.858;18.632;2022-08-01T09:42:01;100230.06;;;28.10;37.96
71306;BME280;59097;46.858;18.632;2022-08-01T09:44:43;100226.63;;;28.48;37.45
71306;BME280;59097;46.858;18.632;2022-08-01T09:47:22;100228.22;;;28.49;37.65
71306;BME280;59097;46.858;18.632;2022-08-01T09:50:06;100229.72;;;28.55;37.86
71306;BME280;59097;46.858;18.632;2022-08-01T09:52:38;100222.16;;;28.52;37.40
71306;BME280;59097;46.858;18.632;2022-08-01T09:55:08;100220.81;;;28.63;37.24
71306;BME280;59097;46.858;18.632;2022-08-01T09:57:36;100225.25;;;28.90;36.86
71306;BME280;59097;46.858;18.632;2022-08-01T10:00:05;100226.47;;;29.06;36.24
71306;BME280;59097;46.858;18.632;2022-08-01T10:02:39;100225.78;;;28.92;35.46
71306;BME280;59097;46.858;18.632;2022-08-01T10:05:11;100214.16;;;29.26;35.63
71306;BME280;59097;46.858;18.632;2022-08-01T10:07:58;100219.06;;;29.07;33.04
71306;BME280;59097;46.858;18.632;2022-08-01T10:10:34;100212.47;;;29.08;33.65
71306;BME280;59097;46.858;18.632;2022-08-01T10:13:04;100207.81;;;29.73;33.66
71306;BME280;59097;46.858;18.632;2022-08-01T10:15:36;100202.84;;;30.18;33.37
71306;BME280;59097;46.858;18.632;2022-08-01T10:18:07;100208.66;;;30.25;32.40
71306;BME280;59097;46.858;18.632;2022-08-01T10:31:12;100209.59;;;29.04;33.84
71306;BME280;59097;46.858;18.632;2022-08-01T10:33:41;100204.47;;;29.85;33.58
71306;BME280;59097;46.858;18.632;2022-08-01T10:36:20;100201.09;;;30.14;33.76
71306;BME280;59097;46.858;18.632;2022-08-01T10:38:50;100192.16;;;30.51;32.77
71306;BME280;59097;46.858;18.632;2022-08-01T10:41:18;100197.13;;;30.66;32.42
71306;BME280;59097;46.858;18.632;2022-08-01T10:43:47;100198.44;;;31.06;31.68
71306;BME280;59097;46.858;18.632;2022-08-01T10:46:19;100195.63;;;31.15;32.22
71306;BME280;59097;46.858;18.632;2022-08-01T10:48:56;100193.00;;;30.89;31.74
71306;BME280;59097;46.858;18.632;2022-08-01T10:51:36;100187.97;;;30.53;32.50
71306;BME280;59097;46.858;18.632;2022-08-01T10:54:19;100188.50;;;30.47;31.63
71306;BME280;59097;46.858;18.632;2022-08-01T10:56:54;100187.75;;;30.76;31.67
71306;BME280;59097;46.858;18.632;2022-08-01T10:59:29;100179.56;;;31.05;31.92
71306;BME280;59097;46.858;18.632;2022-08-01T11:02:31;100188.50;;;30.30;32.44
71306;BME280;59097;46.858;18.632;2022-08-01T11:05:06;100175.31;;;30.23;32.64
71306;BME280;59097;46.858;18.632;2022-08-01T11:07:53;100173.59;;;30.02;33.32
71306;BME280;59097;46.858;18.632;2022-08-01T11:10:28;100179.97;;;30.40;32.78
71306;BME280;59097;46.858;18.632;2022-08-01T11:12:59;100184.31;;;30.41;32.44
71306;BME280;59097;46.858;18.632;2022-08-01T11:15:34;100182.13;;;30.72;31.45
71306;BME280;59097;46.858;18.632;2022-08-01T11:18:30;100184.09;;;31.09;30.97
71306;BME280;59097;46.858;18.632;2022-08-01T11:21:03;100179.87;;;31.12;31.57
71306;BME280;59097;46.858;18.632;2022-08-01T11:23:56;100070.03;;;30.29;31.17
71306;BME280;59097;46.858;18.632;2022-08-01T11:26:25;100170.59;;;30.87;32.45
71306;BME280;59097;46.858;18.632;2022-08-01T11:29:14;100176.25;;;30.53;32.61
71306;BME280;59097;46.858;18.632;2022-08-01T11:31:50;100163.59;;;30.14;33.01
71306;BME280;59097;46.858;18.632;2022-08-01T11:34:53;100160.03;;;30.14;33.44
71306;BME280;59097;46.858;18.632;2022-08-01T11:37:24;100160.47;;;30.50;33.05
71306;BME280;59097;46.858;18.632;2022-08-01T11:40:19;100165.78;;;30.46;32.25
71306;BME280;59097;46.858;18.632;2022-08-01T11:43:16;100168.22;;;30.48;32.68
71306;BME280;59097;46.858;18.632;2022-08-01T11:45:50;100159.88;;;30.19;32.79
71306;BME280;59097;46.858;18.632;2022-08-01T11:48:22;100158.16;;;29.97;33.12
71306;BME280;59097;46.858;18.632;2022-08-01T11:50:56;100172.28;;;29.73;33.39
71306;BME280;59097;46.858;18.632;2022-08-01T11:53:29;100150.38;;;29.22;33.61
71306;BME280;59097;46.858;18.632;2022-08-01T11:55:57;100160.50;;;29.21;34.77
71306;BME280;59097;46.858;18.632;2022-08-01T11:58:27;100161.28;;;29.22;34.47
71306;BME280;59097;46.858;18.632;2022-08-01T12:00:58;100159.50;;;29.17;34.00
71306;BME280;59097;46.858;18.632;2022-08-01T12:03:29;100130.44;;;29.39;33.90
71306;BME280;59097;46.858;18.632;2022-08-01T12:06:00;100149.09;;;30.22;33.50
71306;BME280;59097;46.858;18.632;2022-08-01T12:08:31;100137.56;;;30.63;33.52
71306;BME280;59097;46.858;18.632;2022-08-01T12:11:04;100150.41;;;30.71;32.43
71306;BME280;59097;46.858;18.632;2022-08-01T12:13:41;100150.28;;;30.59;32.23
71306;BME280;59097;46.858;18.632;2022-08-01T12:16:11;100146.53;;;30.17;31.69
71306;BME280;59097;46.858;18.632;2022-08-01T12:18:42;100142.75;;;30.47;32.15
71306;BME280;59097;46.858;18.632;2022-08-01T12:21:11;100137.81;;;30.15;32.25
71306;BME280;59097;46.858;18.632;2022-08-01T12:23:39;100140.38;;;30.37;32.12
71306;BME280;59097;46.858;18.632;2022-08-01T12:26:07;100122.78;;;30.47;31.59
71306;BME280;59097;46.858;18.632;2022-08-01T12:28:55;100105.84;;;30.53;31.91
71306;BME280;59097;46.858;18.632;2022-08-01T12:31:31;100137.03;;;30.70;31.54
71306;BME280;59097;46.858;18.632;2022-08-01T12:34:26;100128.78;;;30.40;31.58
71306;BME280;59097;46.858;18.632;2022-08-01T12:37:00;100118.37;;;30.08;32.17
71306;BME280;59097;46.858;18.632;2022-08-01T12:39:34;100129.34;;;30.00;32.37
71306;BME280;59097;46.858;18.632;2022-08-01T12:42:07;100128.34;;;30.13;32.88
71306;BME280;59097;46.858;18.632;2022-08-01T12:44:39;100131.25;;;30.08;32.30
71306;BME280;59097;46.858;18.632;2022-08-01T12:47:09;100128.84;;;30.15;32.34
71306;BME280;59097;46.858;18.632;2022-08-01T12:49:42;100127.66;;;30.24;31.60
71306;BME280;59097;46.858;18.632;2022-08-01T12:52:11;100125.28;;;30.14;32.45
71306;BME280;59097;46.858;18.632;2022-08-01T12:54:59;100120.75;;;30.27;33.04
71306;BME280;59097;46.858;18.632;2022-08-01T12:57:27;100127.63;;;30.50;32.91
71306;BME280;59097;46.858;18.632;2022-08-01T13:00:10;100122.44;;;30.57;32.51
71306;BME280;59097;46.858;18.632;2022-08-01T13:02:41;100119.44;;;30.33;32.48
71306;BME280;59097;46.858;18.632;2022-08-01T13:05:10;100118.25;;;30.05;32.51
71306;BME280;59097;46.858;18.632;2022-08-01T13:07:45;100114.81;;;30.08;31.96
71306;BME280;59097;46.858;18.632;2022-08-01T13:10:23;100110.50;;;30.07;32.40
71306;BME280;59097;46.858;18.632;2022-08-01T13:12:55;100115.28;;;30.27;32.65
71306;BME280;59097;46.858;18.632;2022-08-01T13:15:33;100119.09;;;30.34;32.58
71306;BME280;59097;46.858;18.632;2022-08-01T13:18:30;100121.53;;;30.36;32.90
71306;BME280;59097;46.858;18.632;2022-08-01T13:21:14;100115.34;;;30.01;32.78
71306;BME280;59097;46.858;18.632;2022-08-01T13:26:56;100112.59;;;29.75;32.51
71306;BME280;59097;46.858;18.632;2022-08-01T13:29:38;100103.78;;;29.61;33.35